sensor_id;sensor_type;location;lat;lon;timestamp;temperature;humidity
30290;DHT22;17105;55.652;37.710;2023-02-11T00:00:33;2.00;78.10
30290;DHT22;17105;55.652;37.710;2023-02-11T00:01:07;2.00;78.10
30290;DHT22;17105;55.652;37.710;2023-02-11T00:01:40;2.00;78.10
30290;DHT22;17105;55.652;37.710;2023-02-11T00:02:13;2.00;78.10
30290;DHT22;17105;55.652;37.710;2023-02-11T00:02:46;2.00;78.10
30290;DHT22;17105;55.652;37.710;2023-02-11T00:03:19;2.00;78.10
30290;DHT22;17105;55.652;37.710;2023-02-11T00:03:52;2.00;78.00
30290;DHT22;17105;55.652;37.710;2023-02-11T00:04:29;2.00;78.00
30290;DHT22;17105;55.652;37.710;2023-02-11T00:05:03;2.00;78.00
30290;DHT22;17105;55.652;37.710;2023-02-11T00:05:36;2.00;78.10
30290;DHT22;17105;55.652;37.710;2023-02-11T00:06:10;2.00;78.10
30290;DHT22;17105;55.652;37.710;2023-02-11T00:06:43;2.00;78.10
30290;DHT22;17105;55.652;37.710;2023-02-11T00:07:16;2.00;78.00
30290;DHT22;17105;55.652;37.710;2023-02-11T00:07:49;2.00;78.10
30290;DHT22;17105;55.652;37.710;2023-02-11T00:08:22;2.00;78.10
30290;DHT22;17105;55.652;37.710;2023-02-11T00:08:58;2.00;78.00
30290;DHT22;17105;55.652;37.710;2023-02-11T00:09:32;2.00;78.00
30290;DHT22;17105;55.652;37.710;2023-02-11T00:10:06;2.00;78.00
30290;DHT22;17105;55.652;37.710;2023-02-11T00:10:40;2.00;78.00
30290;DHT22;17105;55.652;37.710;2023-02-11T00:11:14;2.00;78.00
30290;DHT22;17105;55.652;37.710;2023-02-11T00:11:47;2.00;78.00
30290;DHT22;17105;55.652;37.710;2023-02-11T00:12:20;2.00;78.00
30290;DHT22;17105;55.652;37.710;2023-02-11T00:12:54;2.00;78.00
30290;DHT22;17105;55.652;37.710;2023-02-11T00:13:27;2.00;78.00
30290;DHT22;17105;55.652;37.710;2023-02-11T00:14:04;2.00;78.10
30290;DHT22;17105;55.652;37.710;2023-02-11T00:14:41;2.00;78.10
30290;DHT22;17105;55.652;37.710;2023-02-11T00:15:13;2.00;78.10
30290;DHT22;17105;55.652;37.710;2023-02-11T00:15:46;2.00;78.10
30290;DHT22;17105;55.652;37.710;2023-02-11T00:16:20;2.00;78.00
30290;DHT22;17105;55.652;37.710;2023-02-11T00:16:53;2.00;78.10
30290;DHT22;17105;55.652;37.710;2023-02-11T00:17:26;2.00;78.00
30290;DHT22;17105;55.652;37.710;2023-02-11T00:18:00;2.00;78.00
30290;DHT22;17105;55.652;37.710;2023-02-11T00:18:33;2.00;78.00
30290;DHT22;17105;55.652;37.710;2023-02-11T00:19:08;2.00;78.00
30290;DHT22;17105;55.652;37.710;2023-02-11T00:19:42;2.00;78.00
30290;DHT22;17105;55.652;37.710;2023-02-11T00:20:15;2.00;78.10
30290;DHT22;17105;55.652;37.710;2023-02-11T00:20:48;2.00;78.10
30290;DHT22;17105;55.652;37.710;2023-02-11T00:21:24;2.00;78.10
30290;DHT22;17105;55.652;37.710;2023-02-11T00:21:59;2.00;78.20
30290;DHT22;17105;55.652;37.710;2023-02-11T00:22:33;2.00;78.20
30290;DHT22;17105;55.652;37.710;2023-02-11T00:23:06;2.00;78.10
30290;DHT22;17105;55.652;37.710;2023-02-11T00:23:38;2.00;78.10
30290;DHT22;17105;55.652;37.710;2023-02-11T00:24:12;2.00;78.10
30290;DHT22;17105;55.652;37.710;2023-02-11T00:24:47;2.00;78.00
30290;DHT22;17105;55.652;37.710;2023-02-11T00:25:21;1.90;77.90
30290;DHT22;17105;55.652;37.710;2023-02-11T00:25:54;2.00;78.00
30290;DHT22;17105;55.652;37.710;2023-02-11T00:26:30;1.90;77.90
30290;DHT22;17105;55.652;37.710;2023-02-11T00:27:04;1.90;78.00
30290;DHT22;17105;55.652;37.710;2023-02-11T00:27:38;1.90;78.00
30290;DHT22;17105;55.652;37.710;2023-02-11T00:28:11;1.90;78.10
30290;DHT22;17105;55.652;37.710;2023-02-11T00:28:45;1.80;78.10
30290;DHT22;17105;55.652;37.710;2023-02-11T00:29:19;1.80;78.20
30290;DHT22;17105;55.652;37.710;2023-02-11T00:29:52;1.80;78.20
30290;DHT22;17105;55.652;37.710;2023-02-11T00:30:25;1.80;78.20
30290;DHT22;17105;55.652;37.710;2023-02-11T00:30:58;1.80;78.30
30290;DHT22;17105;55.652;37.710;2023-02-11T00:31:33;1.80;78.30
30290;DHT22;17105;55.652;37.710;2023-02-11T00:32:10;1.80;78.30
30290;DHT22;17105;55.652;37.710;2023-02-11T00:32:44;1.80;78.40
30290;DHT22;17105;55.652;37.710;2023-02-11T00:33:16;1.70;78.40
30290;DHT22;17105;55.652;37.710;2023-02-11T00:33:50;1.80;78.50
30290;DHT22;17105;55.652;37.710;2023-02-11T00:34:23;1.70;78.50
30290;DHT22;17105;55.652;37.710;2023-02-11T00:34:58;1.70;78.50
30290;DHT22;17105;55.652;37.710;2023-02-11T00:35:31;1.70;78.50
30290;DHT22;17105;55.652;37.710;2023-02-11T00:36:07;1.70;78.50
30290;DHT22;17105;55.652;37.710;2023-02-11T00:36:40;1.70;78.50
30290;DHT22;17105;55.652;37.710;2023-02-11T00:37:13;1.70;78.60
30290;DHT22;17105;55.652;37.710;2023-02-11T00:37:47;1.70;78.60
30290;DHT22;17105;55.652;37.710;2023-02-11T00:38:19;1.70;78.60
30290;DHT22;17105;55.652;37.710;2023-02-11T00:38:53;1.70;78.70
30290;DHT22;17105;55.652;37.710;2023-02-11T00:39:28;1.70;78.70
30290;DHT22;17105;55.652;37.710;2023-02-11T00:40:01;1.70;78.60
30290;DHT22;17105;55.652;37.710;2023-02-11T00:40:39;1.70;78.70
30290;DHT22;17105;55.652;37.710;2023-02-11T00:41:46;1.70;78.30
30290;DHT22;17105;55.652;37.710;2023-02-11T00:42:19;1.60;78.80
30290;DHT22;17105;55.652;37.710;2023-02-11T00:42:52;1.70;78.80
30290;DHT22;17105;55.652;37.710;2023-02-11T00:43:25;1.60;78.80
30290;DHT22;17105;55.652;37.710;2023-02-11T00:43:58;1.70;78.80
30290;DHT22;17105;55.652;37.710;2023-02-11T00:44:32;1.60;78.70
30290;DHT22;17105;55.652;37.710;2023-02-11T00:45:05;1.70;78.80
30290;DHT22;17105;55.652;37.710;2023-02-11T00:45:40;1.70;78.80
30290;DHT22;17105;55.652;37.710;2023-02-11T00:46:14;1.60;78.70
30290;DHT22;17105;55.652;37.710;2023-02-11T00:46:47;1.60;78.70
30290;DHT22;17105;55.652;37.710;2023-02-11T00:47:20;1.60;78.80
30290;DHT22;17105;55.652;37.710;2023-02-11T00:47:54;1.60;78.80
30290;DHT22;17105;55.652;37.710;2023-02-11T00:48:27;1.60;78.80
30290;DHT22;17105;55.652;37.710;2023-02-11T00:49:00;1.60;78.80
30290;DHT22;17105;55.652;37.710;2023-02-11T00:49:34;1.60;78.80
30290;DHT22;17105;55.652;37.710;2023-02-11T00:50:08;1.60;78.80
30290;DHT22;17105;55.652;37.710;2023-02-11T00:50:41;1.70;78.80
30290;DHT22;17105;55.652;37.710;2023-02-11T00:51:15;1.60;78.70
30290;DHT22;17105;55.652;37.710;2023-02-11T00:51:47;1.60;78.70
30290;DHT22;17105;55.652;37.710;2023-02-11T00:52:20;1.60;78.80
30290;DHT22;17105;55.652;37.710;2023-02-11T00:52:54;1.60;78.80
30290;DHT22;17105;55.652;37.710;2023-02-11T00:53:27;1.60;78.90
30290;DHT22;17105;55.652;37.710;2023-02-11T00:53:59;1.60;78.90
30290;DHT22;17105;55.652;37.710;2023-02-11T00:54:34;1.60;79.00
30290;DHT22;17105;55.652;37.710;2023-02-11T00:55:07;1.50;79.00
30290;DHT22;17105;55.652;37.710;2023-02-11T00:55:41;1.50;79.60
30290;DHT22;17105;55.652;37.710;2023-02-11T00:56:15;1.50;79.10
30290;DHT22;17105;55.652;37.710;2023-02-11T00:56:47;1.60;79.10
30290;DHT22;17105;55.652;37.710;2023-02-11T00:57:21;1.50;79.00
30290;DHT22;17105;55.652;37.710;2023-02-11T00:57:55;1.50;79.60
30290;DHT22;17105;55.652;37.710;2023-02-11T00:58:28;1.60;79.10
30290;DHT22;17105;55.652;37.710;2023-02-11T00:59:01;1.60;79.10
30290;DHT22;17105;55.652;37.710;2023-02-11T00:59:34;1.50;79.00
30290;DHT22;17105;55.652;37.710;2023-02-11T01:00:10;1.60;79.10
30290;DHT22;17105;55.652;37.710;2023-02-11T01:00:43;1.50;79.00
30290;DHT22;17105;55.652;37.710;2023-02-11T01:01:18;1.60;79.00
30290;DHT22;17105;55.652;37.710;2023-02-11T01:01:53;1.60;79.00
30290;DHT22;17105;55.652;37.710;2023-02-11T01:02:26;1.60;78.90
30290;DHT22;17105;55.652;37.710;2023-02-11T01:03:00;1.60;78.90
30290;DHT22;17105;55.652;37.710;2023-02-11T01:03:35;1.60;78.90
30290;DHT22;17105;55.652;37.710;2023-02-11T01:04:09;1.60;78.90
30290;DHT22;17105;55.652;37.710;2023-02-11T01:04:41;1.60;78.90
30290;DHT22;17105;55.652;37.710;2023-02-11T01:05:14;1.50;78.80
30290;DHT22;17105;55.652;37.710;2023-02-11T01:05:48;1.50;78.90
30290;DHT22;17105;55.652;37.710;2023-02-11T01:06:22;1.50;79.00
30290;DHT22;17105;55.652;37.710;2023-02-11T01:06:55;1.50;79.10
30290;DHT22;17105;55.652;37.710;2023-02-11T01:07:30;1.50;79.10
30290;DHT22;17105;55.652;37.710;2023-02-11T01:08:04;1.50;79.10
30290;DHT22;17105;55.652;37.710;2023-02-11T01:08:38;1.50;79.10
30290;DHT22;17105;55.652;37.710;2023-02-11T01:09:12;1.50;79.10
30290;DHT22;17105;55.652;37.710;2023-02-11T01:09:46;1.50;79.10
30290;DHT22;17105;55.652;37.710;2023-02-11T01:10:19;1.50;79.10
30290;DHT22;17105;55.652;37.710;2023-02-11T01:10:57;1.50;79.10
30290;DHT22;17105;55.652;37.710;2023-02-11T01:11:31;1.50;79.10
30290;DHT22;17105;55.652;37.710;2023-02-11T01:12:04;1.50;79.20
30290;DHT22;17105;55.652;37.710;2023-02-11T01:12:38;1.50;79.10
30290;DHT22;17105;55.652;37.710;2023-02-11T01:13:12;1.50;79.10
30290;DHT22;17105;55.652;37.710;2023-02-11T01:13:45;1.50;79.10
30290;DHT22;17105;55.652;37.710;2023-02-11T01:14:19;1.40;79.10
30290;DHT22;17105;55.652;37.710;2023-02-11T01:14:55;1.50;79.20
30290;DHT22;17105;55.652;37.710;2023-02-11T01:15:28;1.50;79.20
30290;DHT22;17105;55.652;37.710;2023-02-11T01:16:02;1.50;79.20
30290;DHT22;17105;55.652;37.710;2023-02-11T01:16:36;1.40;79.10
30290;DHT22;17105;55.652;37.710;2023-02-11T01:17:08;1.40;79.20
30290;DHT22;17105;55.652;37.710;2023-02-11T01:17:42;1.40;79.20
30290;DHT22;17105;55.652;37.710;2023-02-11T01:18:16;1.40;79.20
30290;DHT22;17105;55.652;37.710;2023-02-11T01:18:49;1.40;79.20
30290;DHT22;17105;55.652;37.710;2023-02-11T01:19:23;1.40;79.20
30290;DHT22;17105;55.652;37.710;2023-02-11T01:20:00;1.40;79.30
30290;DHT22;17105;55.652;37.710;2023-02-11T01:20:34;1.40;79.30
30290;DHT22;17105;55.652;37.710;2023-02-11T01:21:07;1.40;79.30
30290;DHT22;17105;55.652;37.710;2023-02-11T01:21:40;1.40;79.30
30290;DHT22;17105;55.652;37.710;2023-02-11T01:22:13;1.40;79.30
30290;DHT22;17105;55.652;37.710;2023-02-11T01:22:46;1.40;79.40
30290;DHT22;17105;55.652;37.710;2023-02-11T01:23:20;1.40;79.40
30290;DHT22;17105;55.652;37.710;2023-02-11T01:23:53;1.40;79.40
30290;DHT22;17105;55.652;37.710;2023-02-11T01:24:29;1.40;79.40
30290;DHT22;17105;55.652;37.710;2023-02-11T01:25:02;1.30;79.40
30290;DHT22;17105;55.652;37.710;2023-02-11T01:25:35;1.30;79.50
30290;DHT22;17105;55.652;37.710;2023-02-11T01:26:10;1.40;79.50
30290;DHT22;17105;55.652;37.710;2023-02-11T01:26:42;1.30;79.40
30290;DHT22;17105;55.652;37.710;2023-02-11T01:27:15;1.40;79.50
30290;DHT22;17105;55.652;37.710;2023-02-11T01:27:52;1.40;79.40
30290;DHT22;17105;55.652;37.710;2023-02-11T01:28:28;1.40;79.30
30290;DHT22;17105;55.652;37.710;2023-02-11T01:29:03;1.40;79.40
30290;DHT22;17105;55.652;37.710;2023-02-11T01:29:37;1.40;79.40
30290;DHT22;17105;55.652;37.710;2023-02-11T01:30:12;1.40;79.40
30290;DHT22;17105;55.652;37.710;2023-02-11T01:30:45;1.40;79.30
30290;DHT22;17105;55.652;37.710;2023-02-11T01:31:19;1.40;79.30
30290;DHT22;17105;55.652;37.710;2023-02-11T01:31:51;1.40;79.30
30290;DHT22;17105;55.652;37.710;2023-02-11T01:32:24;1.30;79.30
30290;DHT22;17105;55.652;37.710;2023-02-11T01:32:58;1.40;79.30
30290;DHT22;17105;55.652;37.710;2023-02-11T01:33:31;1.40;79.30
30290;DHT22;17105;55.652;37.710;2023-02-11T01:34:04;1.40;79.30
30290;DHT22;17105;55.652;37.710;2023-02-11T01:34:41;1.40;79.30
30290;DHT22;17105;55.652;37.710;2023-02-11T01:35:13;1.40;79.30
30290;DHT22;17105;55.652;37.710;2023-02-11T01:35:46;1.40;79.30
30290;DHT22;17105;55.652;37.710;2023-02-11T01:36:20;1.40;79.20
30290;DHT22;17105;55.652;37.710;2023-02-11T01:36:56;1.40;79.20
30290;DHT22;17105;55.652;37.710;2023-02-11T01:37:31;1.40;79.20
30290;DHT22;17105;55.652;37.710;2023-02-11T01:38:05;1.40;79.10
30290;DHT22;17105;55.652;37.710;2023-02-11T01:38:38;1.40;79.20
30290;DHT22;17105;55.652;37.710;2023-02-11T01:39:12;1.40;79.20
30290;DHT22;17105;55.652;37.710;2023-02-11T01:39:46;1.40;79.10
30290;DHT22;17105;55.652;37.710;2023-02-11T01:40:19;1.40;79.00
30290;DHT22;17105;55.652;37.710;2023-02-11T01:40:53;1.40;79.00
30290;DHT22;17105;55.652;37.710;2023-02-11T01:41:29;1.40;79.00
30290;DHT22;17105;55.652;37.710;2023-02-11T01:42:02;1.40;78.90
30290;DHT22;17105;55.652;37.710;2023-02-11T01:42:34;1.40;78.90
30290;DHT22;17105;55.652;37.710;2023-02-11T01:43:09;1.40;78.90
30290;DHT22;17105;55.652;37.710;2023-02-11T01:43:45;1.40;79.00
30290;DHT22;17105;55.652;37.710;2023-02-11T01:44:24;1.40;78.90
30290;DHT22;17105;55.652;37.710;2023-02-11T01:44:58;1.40;78.90
30290;DHT22;17105;55.652;37.710;2023-02-11T01:45:57;1.40;78.90
30290;DHT22;17105;55.652;37.710;2023-02-11T01:46:32;1.40;78.80
30290;DHT22;17105;55.652;37.710;2023-02-11T01:47:07;1.40;78.80
30290;DHT22;17105;55.652;37.710;2023-02-11T01:47:41;1.40;78.70
30290;DHT22;17105;55.652;37.710;2023-02-11T01:48:18;1.40;78.70
30290;DHT22;17105;55.652;37.710;2023-02-11T01:48:56;1.40;78.70
30290;DHT22;17105;55.652;37.710;2023-02-11T01:49:32;1.40;78.70
30290;DHT22;17105;55.652;37.710;2023-02-11T01:50:06;1.40;78.60
30290;DHT22;17105;55.652;37.710;2023-02-11T01:50:40;1.40;78.60
30290;DHT22;17105;55.652;37.710;2023-02-11T01:51:20;1.40;78.60
30290;DHT22;17105;55.652;37.710;2023-02-11T01:51:57;1.40;78.60
30290;DHT22;17105;55.652;37.710;2023-02-11T01:52:35;1.30;78.60
30290;DHT22;17105;55.652;37.710;2023-02-11T01:53:12;1.30;78.70
30290;DHT22;17105;55.652;37.710;2023-02-11T01:54:05;1.30;78.80
30290;DHT22;17105;55.652;37.710;2023-02-11T01:54:59;1.30;78.80
30290;DHT22;17105;55.652;37.710;2023-02-11T01:55:54;1.30;78.80
30290;DHT22;17105;55.652;37.710;2023-02-11T01:56:51;1.30;78.60
30290;DHT22;17105;55.652;37.710;2023-02-11T01:57:46;1.30;78.60
30290;DHT22;17105;55.652;37.710;2023-02-11T01:58:21;1.30;78.50
30290;DHT22;17105;55.652;37.710;2023-02-11T01:59:00;1.30;78.40
30290;DHT22;17105;55.652;37.710;2023-02-11T01:59:40;1.30;78.40
30290;DHT22;17105;55.652;37.710;2023-02-11T02:00:17;1.30;78.40
30290;DHT22;17105;55.652;37.710;2023-02-11T02:00:52;1.30;78.40
30290;DHT22;17105;55.652;37.710;2023-02-11T02:01:26;1.30;78.40
30290;DHT22;17105;55.652;37.710;2023-02-11T02:02:05;1.30;78.40
30290;DHT22;17105;55.652;37.710;2023-02-11T02:02:45;1.30;78.40
30290;DHT22;17105;55.652;37.710;2023-02-11T02:03:21;1.30;78.50
30290;DHT22;17105;55.652;37.710;2023-02-11T02:03:58;1.30;78.60
30290;DHT22;17105;55.652;37.710;2023-02-11T02:04:38;1.20;78.50
30290;DHT22;17105;55.652;37.710;2023-02-11T02:05:21;1.30;78.60
30290;DHT22;17105;55.652;37.710;2023-02-11T02:06:00;1.20;79.10
30290;DHT22;17105;55.652;37.710;2023-02-11T02:06:36;1.20;78.50
30290;DHT22;17105;55.652;37.710;2023-02-11T02:07:15;1.20;78.60
30290;DHT22;17105;55.652;37.710;2023-02-11T02:07:57;1.20;78.60
30290;DHT22;17105;55.652;37.710;2023-02-11T02:08:37;1.20;78.50
30290;DHT22;17105;55.652;37.710;2023-02-11T02:09:16;1.20;78.50
30290;DHT22;17105;55.652;37.710;2023-02-11T02:09:58;1.20;78.50
30290;DHT22;17105;55.652;37.710;2023-02-11T02:10:38;1.20;78.40
30290;DHT22;17105;55.652;37.710;2023-02-11T02:11:12;1.20;78.40
30290;DHT22;17105;55.652;37.710;2023-02-11T02:11:44;1.20;78.40
30290;DHT22;17105;55.652;37.710;2023-02-11T02:12:20;1.30;78.40
30290;DHT22;17105;55.652;37.710;2023-02-11T02:12:53;1.20;78.20
30290;DHT22;17105;55.652;37.710;2023-02-11T02:13:31;1.30;78.20
30290;DHT22;17105;55.652;37.710;2023-02-11T02:14:07;1.30;78.20
30290;DHT22;17105;55.652;37.710;2023-02-11T02:14:40;1.30;78.20
30290;DHT22;17105;55.652;37.710;2023-02-11T02:15:25;1.30;78.10
30290;DHT22;17105;55.652;37.710;2023-02-11T02:16:01;1.30;78.20
30290;DHT22;17105;55.652;37.710;2023-02-11T02:16:36;1.30;78.20
30290;DHT22;17105;55.652;37.710;2023-02-11T02:17:16;1.30;78.20
30290;DHT22;17105;55.652;37.710;2023-02-11T02:18:00;1.30;78.20
30290;DHT22;17105;55.652;37.710;2023-02-11T02:18:42;1.30;78.10
30290;DHT22;17105;55.652;37.710;2023-02-11T02:22:03;1.40;78.20
30290;DHT22;17105;55.652;37.710;2023-02-11T02:24:43;1.50;77.60
30290;DHT22;17105;55.652;37.710;2023-02-11T02:25:39;1.50;77.40
30290;DHT22;17105;55.652;37.710;2023-02-11T02:26:47;1.50;77.10
30290;DHT22;17105;55.652;37.710;2023-02-11T02:27:37;1.50;77.10
30290;DHT22;17105;55.652;37.710;2023-02-11T02:28:30;1.50;77.00
30290;DHT22;17105;55.652;37.710;2023-02-11T02:29:38;1.50;76.80
30290;DHT22;17105;55.652;37.710;2023-02-11T02:30:47;1.60;76.70
30290;DHT22;17105;55.652;37.710;2023-02-11T02:31:38;1.60;76.50
30290;DHT22;17105;55.652;37.710;2023-02-11T02:32:27;1.60;76.60
30290;DHT22;17105;55.652;37.710;2023-02-11T02:33:23;1.60;76.60
30290;DHT22;17105;55.652;37.710;2023-02-11T02:34:01;1.60;76.50
30290;DHT22;17105;55.652;37.710;2023-02-11T02:34:38;1.60;76.50
30290;DHT22;17105;55.652;37.710;2023-02-11T02:35:23;1.60;76.30
30290;DHT22;17105;55.652;37.710;2023-02-11T02:36:06;1.60;76.40
30290;DHT22;17105;55.652;37.710;2023-02-11T02:36:45;1.70;76.50
30290;DHT22;17105;55.652;37.710;2023-02-11T02:37:23;1.70;76.60
30290;DHT22;17105;55.652;37.710;2023-02-11T02:38:02;1.70;76.70
30290;DHT22;17105;55.652;37.710;2023-02-11T02:38:43;1.70;76.70
30290;DHT22;17105;55.652;37.710;2023-02-11T02:39:23;1.70;76.60
30290;DHT22;17105;55.652;37.710;2023-02-11T02:39:58;1.70;76.60
30290;DHT22;17105;55.652;37.710;2023-02-11T02:40:39;1.70;76.60
30290;DHT22;17105;55.652;37.710;2023-02-11T02:41:15;1.70;76.70
30290;DHT22;17105;55.652;37.710;2023-02-11T02:41:49;1.70;76.60
30290;DHT22;17105;55.652;37.710;2023-02-11T02:42:24;1.80;76.60
30290;DHT22;17105;55.652;37.710;2023-02-11T02:42:58;1.80;76.50
30290;DHT22;17105;55.652;37.710;2023-02-11T02:43:33;1.80;76.60
30290;DHT22;17105;55.652;37.710;2023-02-11T02:44:08;1.80;76.50
30290;DHT22;17105;55.652;37.710;2023-02-11T02:44:47;1.80;77.00
30290;DHT22;17105;55.652;37.710;2023-02-11T02:45:20;1.80;76.40
30290;DHT22;17105;55.652;37.710;2023-02-11T02:45:54;1.80;76.40
30290;DHT22;17105;55.652;37.710;2023-02-11T02:46:28;1.80;76.50
30290;DHT22;17105;55.652;37.710;2023-02-11T02:47:02;1.80;76.40
30290;DHT22;17105;55.652;37.710;2023-02-11T02:47:37;1.80;76.30
30290;DHT22;17105;55.652;37.710;2023-02-11T02:48:24;1.90;76.40
30290;DHT22;17105;55.652;37.710;2023-02-11T02:48:57;1.90;76.40
30290;DHT22;17105;55.652;37.710;2023-02-11T02:49:31;1.90;76.40
30290;DHT22;17105;55.652;37.710;2023-02-11T02:50:05;1.90;76.40
30290;DHT22;17105;55.652;37.710;2023-02-11T02:50:39;1.90;76.30
30290;DHT22;17105;55.652;37.710;2023-02-11T02:52:28;2.00;76.30
30290;DHT22;17105;55.652;37.710;2023-02-11T02:53:19;1.90;76.30
30290;DHT22;17105;55.652;37.710;2023-02-11T02:54:03;1.90;76.20
30290;DHT22;17105;55.652;37.710;2023-02-11T02:54:56;1.90;76.10
30290;DHT22;17105;55.652;37.710;2023-02-11T02:55:47;2.00;76.10
30290;DHT22;17105;55.652;37.710;2023-02-11T02:56:27;2.00;75.90
30290;DHT22;17105;55.652;37.710;2023-02-11T02:57:16;1.90;75.80
30290;DHT22;17105;55.652;37.710;2023-02-11T02:58:02;2.00;75.80
30290;DHT22;17105;55.652;37.710;2023-02-11T02:58:55;2.00;75.70
30290;DHT22;17105;55.652;37.710;2023-02-11T02:59:42;1.90;75.60
30290;DHT22;17105;55.652;37.710;2023-02-11T03:00:25;2.00;75.60
30290;DHT22;17105;55.652;37.710;2023-02-11T03:01:09;1.90;75.60
30290;DHT22;17105;55.652;37.710;2023-02-11T03:01:52;2.00;75.50
30290;DHT22;17105;55.652;37.710;2023-02-11T03:02:30;2.00;75.50
30290;DHT22;17105;55.652;37.710;2023-02-11T03:03:15;2.00;75.50
30290;DHT22;17105;55.652;37.710;2023-02-11T03:03:56;2.00;75.60
30290;DHT22;17105;55.652;37.710;2023-02-11T03:04:36;2.00;75.60
30290;DHT22;17105;55.652;37.710;2023-02-11T03:05:17;1.90;75.60
30290;DHT22;17105;55.652;37.710;2023-02-11T03:05:55;2.00;75.70
30290;DHT22;17105;55.652;37.710;2023-02-11T03:06:33;2.00;75.70
30290;DHT22;17105;55.652;37.710;2023-02-11T03:07:13;2.00;75.60
30290;DHT22;17105;55.652;37.710;2023-02-11T03:07:54;2.00;75.60
30290;DHT22;17105;55.652;37.710;2023-02-11T03:08:33;2.00;75.40
30290;DHT22;17105;55.652;37.710;2023-02-11T03:09:11;2.00;75.40
30290;DHT22;17105;55.652;37.710;2023-02-11T03:09:48;2.00;75.30
30290;DHT22;17105;55.652;37.710;2023-02-11T03:10:26;2.00;75.30
30290;DHT22;17105;55.652;37.710;2023-02-11T03:11:00;2.00;75.30
30290;DHT22;17105;55.652;37.710;2023-02-11T03:11:35;2.10;75.30
30290;DHT22;17105;55.652;37.710;2023-02-11T03:12:10;2.10;75.20
30290;DHT22;17105;55.652;37.710;2023-02-11T03:12:45;2.10;75.20
30290;DHT22;17105;55.652;37.710;2023-02-11T03:13:21;2.10;75.20
30290;DHT22;17105;55.652;37.710;2023-02-11T03:13:59;2.10;75.20
30290;DHT22;17105;55.652;37.710;2023-02-11T03:14:35;2.10;75.30
30290;DHT22;17105;55.652;37.710;2023-02-11T03:15:08;2.10;75.20
30290;DHT22;17105;55.652;37.710;2023-02-11T03:15:44;2.10;75.20
30290;DHT22;17105;55.652;37.710;2023-02-11T03:16:20;2.10;75.00
30290;DHT22;17105;55.652;37.710;2023-02-11T03:16:55;2.10;74.90
30290;DHT22;17105;55.652;37.710;2023-02-11T03:17:31;2.10;74.80
30290;DHT22;17105;55.652;37.710;2023-02-11T03:18:06;2.10;74.80
30290;DHT22;17105;55.652;37.710;2023-02-11T03:18:46;2.10;74.80
30290;DHT22;17105;55.652;37.710;2023-02-11T03:19:24;2.10;74.70
30290;DHT22;17105;55.652;37.710;2023-02-11T03:19:58;2.10;74.50
30290;DHT22;17105;55.652;37.710;2023-02-11T03:20:32;2.10;74.40
30290;DHT22;17105;55.652;37.710;2023-02-11T03:21:09;2.10;74.50
30290;DHT22;17105;55.652;37.710;2023-02-11T03:21:43;2.10;74.40
30290;DHT22;17105;55.652;37.710;2023-02-11T03:22:21;2.10;74.50
30290;DHT22;17105;55.652;37.710;2023-02-11T03:22:58;2.10;74.50
30290;DHT22;17105;55.652;37.710;2023-02-11T03:23:36;2.10;74.40
30290;DHT22;17105;55.652;37.710;2023-02-11T03:24:15;2.10;74.40
30290;DHT22;17105;55.652;37.710;2023-02-11T03:24:50;2.10;74.50
30290;DHT22;17105;55.652;37.710;2023-02-11T03:25:28;2.10;74.60
30290;DHT22;17105;55.652;37.710;2023-02-11T03:26:06;2.10;74.60
30290;DHT22;17105;55.652;37.710;2023-02-11T03:26:45;2.10;74.60
30290;DHT22;17105;55.652;37.710;2023-02-11T03:27:25;2.10;74.40
30290;DHT22;17105;55.652;37.710;2023-02-11T03:28:04;2.10;74.30
30290;DHT22;17105;55.652;37.710;2023-02-11T03:28:43;2.10;74.30
30290;DHT22;17105;55.652;37.710;2023-02-11T03:29:26;2.10;74.10
30290;DHT22;17105;55.652;37.710;2023-02-11T03:30:08;2.20;74.00
30290;DHT22;17105;55.652;37.710;2023-02-11T03:30:46;2.10;73.80
30290;DHT22;17105;55.652;37.710;2023-02-11T03:31:27;2.10;73.80
30290;DHT22;17105;55.652;37.710;2023-02-11T03:32:05;2.10;73.90
30290;DHT22;17105;55.652;37.710;2023-02-11T03:32:41;2.10;73.80
30290;DHT22;17105;55.652;37.710;2023-02-11T03:33:23;2.10;73.60
30290;DHT22;17105;55.652;37.710;2023-02-11T03:34:01;2.10;73.80
30290;DHT22;17105;55.652;37.710;2023-02-11T03:34:41;2.10;73.80
30290;DHT22;17105;55.652;37.710;2023-02-11T03:35:19;2.10;73.70
30290;DHT22;17105;55.652;37.710;2023-02-11T03:35:55;2.10;73.80
30290;DHT22;17105;55.652;37.710;2023-02-11T03:36:33;2.10;73.80
30290;DHT22;17105;55.652;37.710;2023-02-11T03:37:11;2.10;73.70
30290;DHT22;17105;55.652;37.710;2023-02-11T03:37:49;2.10;73.80
30290;DHT22;17105;55.652;37.710;2023-02-11T03:38:26;2.10;73.80
30290;DHT22;17105;55.652;37.710;2023-02-11T03:39:03;2.20;73.70
30290;DHT22;17105;55.652;37.710;2023-02-11T03:39:39;2.10;73.60
30290;DHT22;17105;55.652;37.710;2023-02-11T03:40:17;2.20;73.60
30290;DHT22;17105;55.652;37.710;2023-02-11T03:40:53;2.10;73.50
30290;DHT22;17105;55.652;37.710;2023-02-11T03:41:27;2.20;73.50
30290;DHT22;17105;55.652;37.710;2023-02-11T03:42:03;2.20;73.50
30290;DHT22;17105;55.652;37.710;2023-02-11T03:42:40;2.20;73.50
30290;DHT22;17105;55.652;37.710;2023-02-11T03:43:16;2.20;73.30
30290;DHT22;17105;55.652;37.710;2023-02-11T03:43:53;2.10;73.20
30290;DHT22;17105;55.652;37.710;2023-02-11T03:44:31;2.10;73.20
30290;DHT22;17105;55.652;37.710;2023-02-11T03:45:10;2.10;73.20
30290;DHT22;17105;55.652;37.710;2023-02-11T03:45:45;2.10;73.10
30290;DHT22;17105;55.652;37.710;2023-02-11T03:46:23;2.10;73.20
30290;DHT22;17105;55.652;37.710;2023-02-11T03:46:57;2.10;73.20
30290;DHT22;17105;55.652;37.710;2023-02-11T03:47:34;2.10;73.20
30290;DHT22;17105;55.652;37.710;2023-02-11T03:48:11;2.10;73.30
30290;DHT22;17105;55.652;37.710;2023-02-11T03:48:48;2.00;73.20
30290;DHT22;17105;55.652;37.710;2023-02-11T03:49:29;2.10;73.20
30290;DHT22;17105;55.652;37.710;2023-02-11T03:50:06;2.00;73.20
30290;DHT22;17105;55.652;37.710;2023-02-11T03:50:40;2.00;73.30
30290;DHT22;17105;55.652;37.710;2023-02-11T03:51:15;2.00;73.30
30290;DHT22;17105;55.652;37.710;2023-02-11T03:51:50;2.00;73.30
30290;DHT22;17105;55.652;37.710;2023-02-11T03:52:25;2.00;73.40
30290;DHT22;17105;55.652;37.710;2023-02-11T03:53:01;2.00;73.30
30290;DHT22;17105;55.652;37.710;2023-02-11T03:53:35;2.00;73.30
30290;DHT22;17105;55.652;37.710;2023-02-11T03:54:12;2.00;73.30
30290;DHT22;17105;55.652;37.710;2023-02-11T03:54:50;2.00;73.30
30290;DHT22;17105;55.652;37.710;2023-02-11T03:55:26;1.90;73.20
30290;DHT22;17105;55.652;37.710;2023-02-11T03:56:04;2.00;73.10
30290;DHT22;17105;55.652;37.710;2023-02-11T03:56:44;2.00;73.10
30290;DHT22;17105;55.652;37.710;2023-02-11T03:57:20;1.90;73.10
30290;DHT22;17105;55.652;37.710;2023-02-11T03:57:54;1.90;73.00
30290;DHT22;17105;55.652;37.710;2023-02-11T03:58:27;1.90;73.00